sensor_id;sensor_type;location;lat;lon;timestamp;temperature;humidity
74617;DHT22;63123;50.906;4.198;2022-12-07T00:01:07;18.10;49.50
74617;DHT22;63123;50.906;4.198;2022-12-07T00:03:33;18.10;49.60
74617;DHT22;63123;50.906;4.198;2022-12-07T00:05:59;18.10;49.60
74617;DHT22;63123;50.906;4.198;2022-12-07T00:08:25;18.10;49.50
74617;DHT22;63123;50.906;4.198;2022-12-07T00:10:51;18.10;49.50
74617;DHT22;63123;50.906;4.198;2022-12-07T00:13:16;18.10;49.60
74617;DHT22;63123;50.906;4.198;2022-12-07T00:15:42;18.10;49.60
74617;DHT22;63123;50.906;4.198;2022-12-07T00:18:08;18.10;49.60
74617;DHT22;63123;50.906;4.198;2022-12-07T00:20:33;18.10;49.60
74617;DHT22;63123;50.906;4.198;2022-12-07T00:22:59;18.10;49.60
74617;DHT22;63123;50.906;4.198;2022-12-07T00:25:25;18.10;49.60
74617;DHT22;63123;50.906;4.198;2022-12-07T00:27:53;18.10;49.60
74617;DHT22;63123;50.906;4.198;2022-12-07T00:30:21;18.10;49.60
74617;DHT22;63123;50.906;4.198;2022-12-07T00:32:46;18.10;49.70
74617;DHT22;63123;50.906;4.198;2022-12-07T00:35:12;18.10;49.60
74617;DHT22;63123;50.906;4.198;2022-12-07T00:37:38;18.10;49.60
74617;DHT22;63123;50.906;4.198;2022-12-07T00:40:04;18.10;49.60
74617;DHT22;63123;50.906;4.198;2022-12-07T00:42:29;18.00;49.50
74617;DHT22;63123;50.906;4.198;2022-12-07T00:44:55;18.10;49.60
74617;DHT22;63123;50.906;4.198;2022-12-07T00:47:21;18.10;49.60
74617;DHT22;63123;50.906;4.198;2022-12-07T00:49:46;18.10;49.60
74617;DHT22;63123;50.906;4.198;2022-12-07T00:52:12;18.10;49.60
74617;DHT22;63123;50.906;4.198;2022-12-07T00:54:37;18.10;49.70
74617;DHT22;63123;50.906;4.198;2022-12-07T00:57:03;18.10;49.60
74617;DHT22;63123;50.906;4.198;2022-12-07T00:59:28;18.10;49.60
74617;DHT22;63123;50.906;4.198;2022-12-07T01:01:54;18.10;49.60
74617;DHT22;63123;50.906;4.198;2022-12-07T01:04:19;18.10;49.60
74617;DHT22;63123;50.906;4.198;2022-12-07T01:06:45;18.10;49.70
74617;DHT22;63123;50.906;4.198;2022-12-07T01:09:10;18.10;49.70
74617;DHT22;63123;50.906;4.198;2022-12-07T01:11:36;18.00;49.50
74617;DHT22;63123;50.906;4.198;2022-12-07T01:14:02;18.10;49.60
74617;DHT22;63123;50.906;4.198;2022-12-07T01:16:30;18.10;49.70
74617;DHT22;63123;50.906;4.198;2022-12-07T01:18:57;18.10;49.50
74617;DHT22;63123;50.906;4.198;2022-12-07T01:21:28;18.10;49.60
74617;DHT22;63123;50.906;4.198;2022-12-07T01:23:54;18.00;49.60
74617;DHT22;63123;50.906;4.198;2022-12-07T01:26:22;18.10;49.70
74617;DHT22;63123;50.906;4.198;2022-12-07T01:28:48;18.10;49.60
74617;DHT22;63123;50.906;4.198;2022-12-07T01:31:16;18.10;49.70
74617;DHT22;63123;50.906;4.198;2022-12-07T01:33:44;18.10;49.70
74617;DHT22;63123;50.906;4.198;2022-12-07T01:36:19;18.10;49.60
74617;DHT22;63123;50.906;4.198;2022-12-07T01:38:47;18.10;49.60
74617;DHT22;63123;50.906;4.198;2022-12-07T01:41:14;18.10;49.60
74617;DHT22;63123;50.906;4.198;2022-12-07T01:46:37;18.10;49.60
74617;DHT22;63123;50.906;4.198;2022-12-07T01:49:09;18.00;49.60
74617;DHT22;63123;50.906;4.198;2022-12-07T01:51:37;18.00;49.60
74617;DHT22;63123;50.906;4.198;2022-12-07T01:54:04;18.10;49.60
74617;DHT22;63123;50.906;4.198;2022-12-07T01:56:31;18.00;49.60
74617;DHT22;63123;50.906;4.198;2022-12-07T01:58:59;18.00;49.60
74617;DHT22;63123;50.906;4.198;2022-12-07T02:01:25;18.10;49.50
74617;DHT22;63123;50.906;4.198;2022-12-07T02:03:51;18.00;49.60
74617;DHT22;63123;50.906;4.198;2022-12-07T02:06:21;18.10;49.60
74617;DHT22;63123;50.906;4.198;2022-12-07T02:08:47;18.00;49.60
74617;DHT22;63123;50.906;4.198;2022-12-07T02:11:13;18.00;49.60
74617;DHT22;63123;50.906;4.198;2022-12-07T02:13:41;18.10;49.70
74617;DHT22;63123;50.906;4.198;2022-12-07T02:27:27;18.00;49.60
74617;DHT22;63123;50.906;4.198;2022-12-07T02:30:12;18.00;49.60
74617;DHT22;63123;50.906;4.198;2022-12-07T02:35:28;18.00;49.60
74617;DHT22;63123;50.906;4.198;2022-12-07T02:38:18;18.00;49.70
74617;DHT22;63123;50.906;4.198;2022-12-07T02:40:53;18.00;49.70
74617;DHT22;63123;50.906;4.198;2022-12-07T02:43:28;18.00;49.70
74617;DHT22;63123;50.906;4.198;2022-12-07T02:45:58;18.00;49.60
74617;DHT22;63123;50.906;4.198;2022-12-07T02:48:26;18.00;49.70
74617;DHT22;63123;50.906;4.198;2022-12-07T02:50:53;18.00;49.50
74617;DHT22;63123;50.906;4.198;2022-12-07T02:53:40;18.00;49.60
74617;DHT22;63123;50.906;4.198;2022-12-07T03:04:20;18.00;49.60
74617;DHT22;63123;50.906;4.198;2022-12-07T03:06:56;18.10;49.60
74617;DHT22;63123;50.906;4.198;2022-12-07T03:09:34;18.00;49.60
74617;DHT22;63123;50.906;4.198;2022-12-07T03:12:10;18.00;49.60
74617;DHT22;63123;50.906;4.198;2022-12-07T03:15:13;18.10;49.70
74617;DHT22;63123;50.906;4.198;2022-12-07T03:17:41;18.00;49.70
74617;DHT22;63123;50.906;4.198;2022-12-07T03:20:11;18.00;49.70
74617;DHT22;63123;50.906;4.198;2022-12-07T03:22:40;18.00;49.60
74617;DHT22;63123;50.906;4.198;2022-12-07T03:25:09;18.00;49.60
74617;DHT22;63123;50.906;4.198;2022-12-07T03:30:20;18.00;49.70
74617;DHT22;63123;50.906;4.198;2022-12-07T03:33:07;18.00;49.60
74617;DHT22;63123;50.906;4.198;2022-12-07T03:35:41;18.00;49.50
74617;DHT22;63123;50.906;4.198;2022-12-07T03:38:27;18.00;49.60
74617;DHT22;63123;50.906;4.198;2022-12-07T03:41:05;18.00;49.50
74617;DHT22;63123;50.906;4.198;2022-12-07T03:43:32;18.10;49.60
74617;DHT22;63123;50.906;4.198;2022-12-07T03:46:31;18.00;49.40
74617;DHT22;63123;50.906;4.198;2022-12-07T03:51:41;18.00;49.60
74617;DHT22;63123;50.906;4.198;2022-12-07T03:54:33;18.00;49.60
74617;DHT22;63123;50.906;4.198;2022-12-07T03:57:01;18.00;49.60
74617;DHT22;63123;50.906;4.198;2022-12-07T03:59:28;18.00;49.50
74617;DHT22;63123;50.906;4.198;2022-12-07T04:01:57;18.00;49.50
74617;DHT22;63123;50.906;4.198;2022-12-07T04:04:26;18.00;49.60
74617;DHT22;63123;50.906;4.198;2022-12-07T04:06:53;18.10;49.60
74617;DHT22;63123;50.906;4.198;2022-12-07T04:09:19;18.00;49.50
74617;DHT22;63123;50.906;4.198;2022-12-07T04:11:45;18.00;49.50
74617;DHT22;63123;50.906;4.198;2022-12-07T04:14:11;18.00;49.50
74617;DHT22;63123;50.906;4.198;2022-12-07T04:16:48;18.00;49.60
74617;DHT22;63123;50.906;4.198;2022-12-07T04:19:15;18.00;49.40
74617;DHT22;63123;50.906;4.198;2022-12-07T04:21:42;18.00;49.50
74617;DHT22;63123;50.906;4.198;2022-12-07T04:24:07;18.10;49.40
74617;DHT22;63123;50.906;4.198;2022-12-07T04:26:33;18.10;49.50
74617;DHT22;63123;50.906;4.198;2022-12-07T04:28:59;18.10;49.60
74617;DHT22;63123;50.906;4.198;2022-12-07T04:31:24;18.10;50.20
74617;DHT22;63123;50.906;4.198;2022-12-07T04:33:50;18.00;49.60
74617;DHT22;63123;50.906;4.198;2022-12-07T04:36:15;18.10;49.70
74617;DHT22;63123;50.906;4.198;2022-12-07T04:38:41;18.00;49.50
74617;DHT22;63123;50.906;4.198;2022-12-07T04:41:07;18.00;49.60
74617;DHT22;63123;50.906;4.198;2022-12-07T04:43:34;18.10;49.50
74617;DHT22;63123;50.906;4.198;2022-12-07T04:46:00;18.00;49.60
74617;DHT22;63123;50.906;4.198;2022-12-07T04:48:25;18.00;49.50
74617;DHT22;63123;50.906;4.198;2022-12-07T04:50:51;18.00;49.60
74617;DHT22;63123;50.906;4.198;2022-12-07T04:53:17;18.00;49.60
74617;DHT22;63123;50.906;4.198;2022-12-07T04:55:43;18.00;49.60
74617;DHT22;63123;50.906;4.198;2022-12-07T04:58:09;18.00;49.50
74617;DHT22;63123;50.906;4.198;2022-12-07T05:00:34;18.00;49.50
74617;DHT22;63123;50.906;4.198;2022-12-07T05:03:00;18.00;49.40
74617;DHT22;63123;50.906;4.198;2022-12-07T05:05:25;18.10;50.20
74617;DHT22;63123;50.906;4.198;2022-12-07T05:07:51;18.10;49.70
74617;DHT22;63123;50.906;4.198;2022-12-07T05:10:17;18.10;49.50
74617;DHT22;63123;50.906;4.198;2022-12-07T05:12:43;18.00;49.60
74617;DHT22;63123;50.906;4.198;2022-12-07T05:15:08;18.00;49.50
74617;DHT22;63123;50.906;4.198;2022-12-07T05:17:34;18.00;49.60
74617;DHT22;63123;50.906;4.198;2022-12-07T05:20:00;18.00;49.60
74617;DHT22;63123;50.906;4.198;2022-12-07T05:22:25;18.10;49.60
74617;DHT22;63123;50.906;4.198;2022-12-07T05:24:54;18.10;49.70
74617;DHT22;63123;50.906;4.198;2022-12-07T05:27:20;18.00;49.60
74617;DHT22;63123;50.906;4.198;2022-12-07T05:29:46;18.00;49.60
74617;DHT22;63123;50.906;4.198;2022-12-07T05:32:11;18.00;49.60
74617;DHT22;63123;50.906;4.198;2022-12-07T05:34:37;18.10;49.60
74617;DHT22;63123;50.906;4.198;2022-12-07T05:37:02;18.00;49.60
74617;DHT22;63123;50.906;4.198;2022-12-07T05:39:28;18.00;49.60
74617;DHT22;63123;50.906;4.198;2022-12-07T05:41:54;18.00;49.50
74617;DHT22;63123;50.906;4.198;2022-12-07T05:44:42;18.00;49.50
74617;DHT22;63123;50.906;4.198;2022-12-07T05:47:08;18.00;49.50
74617;DHT22;63123;50.906;4.198;2022-12-07T05:49:34;18.10;49.60
74617;DHT22;63123;50.906;4.198;2022-12-07T05:51:59;18.10;49.60
74617;DHT22;63123;50.906;4.198;2022-12-07T05:54:25;18.10;49.60
74617;DHT22;63123;50.906;4.198;2022-12-07T05:56:51;18.00;49.60
74617;DHT22;63123;50.906;4.198;2022-12-07T05:59:16;18.00;49.60
74617;DHT22;63123;50.906;4.198;2022-12-07T06:02:03;18.10;49.60
74617;DHT22;63123;50.906;4.198;2022-12-07T06:04:31;18.00;49.60
74617;DHT22;63123;50.906;4.198;2022-12-07T06:06:57;18.00;49.60
74617;DHT22;63123;50.906;4.198;2022-12-07T06:09:24;18.00;49.60
74617;DHT22;63123;50.906;4.198;2022-12-07T06:11:50;18.00;49.60
74617;DHT22;63123;50.906;4.198;2022-12-07T06:14:35;18.00;49.60
74617;DHT22;63123;50.906;4.198;2022-12-07T06:17:01;18.00;49.60
74617;DHT22;63123;50.906;4.198;2022-12-07T06:19:26;18.10;49.60
74617;DHT22;63123;50.906;4.198;2022-12-07T06:21:52;18.10;49.70
74617;DHT22;63123;50.906;4.198;2022-12-07T06:24:18;18.00;49.50
74617;DHT22;63123;50.906;4.198;2022-12-07T06:26:44;18.00;49.60
74617;DHT22;63123;50.906;4.198;2022-12-07T06:29:11;18.00;49.60
74617;DHT22;63123;50.906;4.198;2022-12-07T06:31:37;18.10;49.60
74617;DHT22;63123;50.906;4.198;2022-12-07T06:34:05;18.00;49.60
74617;DHT22;63123;50.906;4.198;2022-12-07T06:36:31;18.00;49.60
74617;DHT22;63123;50.906;4.198;2022-12-07T06:38:57;18.00;49.50
74617;DHT22;63123;50.906;4.198;2022-12-07T06:41:23;18.00;49.60
74617;DHT22;63123;50.906;4.198;2022-12-07T06:43:49;18.00;50.20
74617;DHT22;63123;50.906;4.198;2022-12-07T06:46:15;18.10;49.60
74617;DHT22;63123;50.906;4.198;2022-12-07T06:48:42;18.10;49.60
74617;DHT22;63123;50.906;4.198;2022-12-07T06:51:08;18.00;49.50
74617;DHT22;63123;50.906;4.198;2022-12-07T06:53:33;18.00;49.50
74617;DHT22;63123;50.906;4.198;2022-12-07T06:55:59;18.10;49.50
74617;DHT22;63123;50.906;4.198;2022-12-07T06:58:24;18.10;49.60
74617;DHT22;63123;50.906;4.198;2022-12-07T07:00:50;18.00;49.60
74617;DHT22;63123;50.906;4.198;2022-12-07T07:03:16;18.00;49.50
74617;DHT22;63123;50.906;4.198;2022-12-07T07:05:43;18.10;49.60
74617;DHT22;63123;50.906;4.198;2022-12-07T07:08:09;18.00;49.50
74617;DHT22;63123;50.906;4.198;2022-12-07T07:10:35;18.00;49.50
74617;DHT22;63123;50.906;4.198;2022-12-07T07:13:00;18.00;49.40
74617;DHT22;63123;50.906;4.198;2022-12-07T07:15:26;18.00;49.40
74617;DHT22;63123;50.906;4.198;2022-12-07T07:17:52;18.00;49.50
74617;DHT22;63123;50.906;4.198;2022-12-07T07:20:17;18.00;49.50
74617;DHT22;63123;50.906;4.198;2022-12-07T07:22:43;18.00;49.50
74617;DHT22;63123;50.906;4.198;2022-12-07T07:25:08;18.00;49.50
74617;DHT22;63123;50.906;4.198;2022-12-07T07:27:34;18.00;49.50
74617;DHT22;63123;50.906;4.198;2022-12-07T07:29:59;18.00;49.50
74617;DHT22;63123;50.906;4.198;2022-12-07T07:32:25;18.00;49.50
74617;DHT22;63123;50.906;4.198;2022-12-07T07:34:51;18.00;49.50
74617;DHT22;63123;50.906;4.198;2022-12-07T07:37:16;18.00;49.50
74617;DHT22;63123;50.906;4.198;2022-12-07T07:39:42;18.00;49.50
74617;DHT22;63123;50.906;4.198;2022-12-07T07:42:08;18.00;49.50
74617;DHT22;63123;50.906;4.198;2022-12-07T07:44:34;18.00;49.40
74617;DHT22;63123;50.906;4.198;2022-12-07T07:47:00;18.10;49.50
74617;DHT22;63123;50.906;4.198;2022-12-07T07:49:26;18.00;49.50
74617;DHT22;63123;50.906;4.198;2022-12-07T07:51:52;18.00;49.50
74617;DHT22;63123;50.906;4.198;2022-12-07T07:54:17;18.00;49.40
74617;DHT22;63123;50.906;4.198;2022-12-07T07:56:43;18.00;49.50
74617;DHT22;63123;50.906;4.198;2022-12-07T07:59:08;18.00;49.50
74617;DHT22;63123;50.906;4.198;2022-12-07T08:01:34;18.00;49.50
74617;DHT22;63123;50.906;4.198;2022-12-07T08:04:00;18.00;49.50
74617;DHT22;63123;50.906;4.198;2022-12-07T08:06:25;18.00;49.50
74617;DHT22;63123;50.906;4.198;2022-12-07T08:08:52;18.10;49.60
74617;DHT22;63123;50.906;4.198;2022-12-07T08:11:18;18.00;49.50
74617;DHT22;63123;50.906;4.198;2022-12-07T08:13:45;18.00;49.50
74617;DHT22;63123;50.906;4.198;2022-12-07T08:16:12;18.00;49.50
74617;DHT22;63123;50.906;4.198;2022-12-07T08:18:39;18.00;49.50
74617;DHT22;63123;50.906;4.198;2022-12-07T08:21:06;18.00;49.50
74617;DHT22;63123;50.906;4.198;2022-12-07T08:23:33;18.00;49.50
74617;DHT22;63123;50.906;4.198;2022-12-07T08:26:04;18.00;49.50
74617;DHT22;63123;50.906;4.198;2022-12-07T08:28:31;18.00;48.70
74617;DHT22;63123;50.906;4.198;2022-12-07T08:31:08;18.10;49.10
74617;DHT22;63123;50.906;4.198;2022-12-07T08:33:35;18.10;49.10
74617;DHT22;63123;50.906;4.198;2022-12-07T08:36:05;18.10;48.10
74617;DHT22;63123;50.906;4.198;2022-12-07T08:38:32;18.10;48.80
74617;DHT22;63123;50.906;4.198;2022-12-07T08:40:58;18.00;49.00
74617;DHT22;63123;50.906;4.198;2022-12-07T08:43:24;18.10;48.80
74617;DHT22;63123;50.906;4.198;2022-12-07T08:45:58;18.10;49.00
74617;DHT22;63123;50.906;4.198;2022-12-07T08:48:26;18.10;49.50
74617;DHT22;63123;50.906;4.198;2022-12-07T08:50:51;18.10;48.40
74617;DHT22;63123;50.906;4.198;2022-12-07T08:53:17;18.10;48.60
74617;DHT22;63123;50.906;4.198;2022-12-07T08:55:44;18.10;48.20
74617;DHT22;63123;50.906;4.198;2022-12-07T08:58:11;18.10;48.60
74617;DHT22;63123;50.906;4.198;2022-12-07T09:00:36;18.10;48.90
74617;DHT22;63123;50.906;4.198;2022-12-07T09:03:02;18.10;48.60
74617;DHT22;63123;50.906;4.198;2022-12-07T09:05:28;18.10;48.80
74617;DHT22;63123;50.906;4.198;2022-12-07T09:07:57;18.10;49.00
74617;DHT22;63123;50.906;4.198;2022-12-07T09:10:23;18.10;49.10
74617;DHT22;63123;50.906;4.198;2022-12-07T09:12:49;18.00;48.50
74617;DHT22;63123;50.906;4.198;2022-12-07T09:15:14;18.10;49.00
74617;DHT22;63123;50.906;4.198;2022-12-07T09:17:40;18.10;49.10
74617;DHT22;63123;50.906;4.198;2022-12-07T09:20:06;18.10;48.80
74617;DHT22;63123;50.906;4.198;2022-12-07T09:22:32;18.10;48.90
74617;DHT22;63123;50.906;4.198;2022-12-07T09:24:59;18.10;49.20
74617;DHT22;63123;50.906;4.198;2022-12-07T09:27:25;18.10;49.10
74617;DHT22;63123;50.906;4.198;2022-12-07T09:29:51;18.10;48.70
74617;DHT22;63123;50.906;4.198;2022-12-07T09:32:16;18.10;49.00
74617;DHT22;63123;50.906;4.198;2022-12-07T09:34:42;18.10;48.00
74617;DHT22;63123;50.906;4.198;2022-12-07T09:37:08;18.10;48.80
74617;DHT22;63123;50.906;4.198;2022-12-07T09:39:33;18.10;48.30
74617;DHT22;63123;50.906;4.198;2022-12-07T09:42:03;18.20;48.90
74617;DHT22;63123;50.906;4.198;2022-12-07T09:44:29;18.10;48.10
74617;DHT22;63123;50.906;4.198;2022-12-07T09:46:55;18.20;48.80
74617;DHT22;63123;50.906;4.198;2022-12-07T09:49:23;18.10;48.60
74617;DHT22;63123;50.906;4.198;2022-12-07T09:52:19;18.10;48.50
74617;DHT22;63123;50.906;4.198;2022-12-07T09:54:49;18.10;49.00
74617;DHT22;63123;50.906;4.198;2022-12-07T09:57:16;18.10;48.70
74617;DHT22;63123;50.906;4.198;2022-12-07T09:59:42;18.10;48.10
74617;DHT22;63123;50.906;4.198;2022-12-07T10:02:36;18.10;48.70
74617;DHT22;63123;50.906;4.198;2022-12-07T10:05:05;18.10;48.90
74617;DHT22;63123;50.906;4.198;2022-12-07T10:07:31;18.10;48.60
74617;DHT22;63123;50.906;4.198;2022-12-07T10:09:56;18.10;48.50
74617;DHT22;63123;50.906;4.198;2022-12-07T10:12:22;18.10;48.90
74617;DHT22;63123;50.906;4.198;2022-12-07T10:15:00;18.10;48.80
74617;DHT22;63123;50.906;4.198;2022-12-07T10:17:39;18.20;48.50
74617;DHT22;63123;50.906;4.198;2022-12-07T10:23:02;18.20;48.50
74617;DHT22;63123;50.906;4.198;2022-12-07T10:25:37;18.10;48.90
74617;DHT22;63123;50.906;4.198;2022-12-07T10:30:56;18.10;48.90
74617;DHT22;63123;50.906;4.198;2022-12-07T10:33:37;18.10;48.50
74617;DHT22;63123;50.906;4.198;2022-12-07T10:36:29;18.10;48.70
74617;DHT22;63123;50.906;4.198;2022-12-07T10:39:02;18.10;48.90
74617;DHT22;63123;50.906;4.198;2022-12-07T10:41:29;18.10;48.60
74617;DHT22;63123;50.906;4.198;2022-12-07T10:43:56;18.10;49.00
74617;DHT22;63123;50.906;4.198;2022-12-07T10:46:32;18.10;48.80
74617;DHT22;63123;50.906;4.198;2022-12-07T10:49:31;18.10;48.90
74617;DHT22;63123;50.906;4.198;2022-12-07T10:52:26;18.10;48.80
74617;DHT22;63123;50.906;4.198;2022-12-07T10:55:16;18.10;48.80
74617;DHT22;63123;50.906;4.198;2022-12-07T11:00:30;18.20;48.70
74617;DHT22;63123;50.906;4.198;2022-12-07T11:03:24;18.20;48.50
74617;DHT22;63123;50.906;4.198;2022-12-07T11:11:52;18.20;48.60
74617;DHT22;63123;50.906;4.198;2022-12-07T11:14:22;18.10;49.00
74617;DHT22;63123;50.906;4.198;2022-12-07T11:17:25;18.10;48.70
74617;DHT22;63123;50.906;4.198;2022-12-07T11:19:55;18.20;49.00
74617;DHT22;63123;50.906;4.198;2022-12-07T11:22:39;18.10;48.70
74617;DHT22;63123;50.906;4.198;2022-12-07T11:33:56;18.20;48.80
74617;DHT22;63123;50.906;4.198;2022-12-07T11:36:41;18.20;48.40
74617;DHT22;63123;50.906;4.198;2022-12-07T11:41:49;18.20;48.60
74617;DHT22;63123;50.906;4.198;2022-12-07T11:44:33;18.20;48.40
74617;DHT22;63123;50.906;4.198;2022-12-07T11:47:07;18.20;48.90
74617;DHT22;63123;50.906;4.198;2022-12-07T11:52:04;18.20;49.20
74617;DHT22;63123;50.906;4.198;2022-12-07T11:54:40;18.20;48.70
74617;DHT22;63123;50.906;4.198;2022-12-07T11:57:14;18.20;48.60
74617;DHT22;63123;50.906;4.198;2022-12-07T11:59:50;18.20;48.80
74617;DHT22;63123;50.906;4.198;2022-12-07T12:02:22;18.20;48.50
74617;DHT22;63123;50.906;4.198;2022-12-07T12:04:54;18.10;49.10
74617;DHT22;63123;50.906;4.198;2022-12-07T12:07:23;18.20;48.50
74617;DHT22;63123;50.906;4.198;2022-12-07T12:10:04;18.20;48.70
74617;DHT22;63123;50.906;4.198;2022-12-07T12:21:00;18.20;48.70
74617;DHT22;63123;50.906;4.198;2022-12-07T12:23:39;18.20;48.70
74617;DHT22;63123;50.906;4.198;2022-12-07T12:26:08;18.20;48.30
74617;DHT22;63123;50.906;4.198;2022-12-07T12:28:48;18.20;48.80
74617;DHT22;63123;50.906;4.198;2022-12-07T12:33:57;18.20;48.40
74617;DHT22;63123;50.906;4.198;2022-12-07T12:36:27;18.20;48.70
74617;DHT22;63123;50.906;4.198;2022-12-07T12:39:13;18.20;48.20
74617;DHT22;63123;50.906;4.198;2022-12-07T12:47:02;18.20;49.10
74617;DHT22;63123;50.906;4.198;2022-12-07T12:54:27;18.20;49.00
74617;DHT22;63123;50.906;4.198;2022-12-07T12:57:13;18.20;48.80
74617;DHT22;63123;50.906;4.198;2022-12-07T13:02:27;18.20;49.00
74617;DHT22;63123;50.906;4.198;2022-12-07T13:05:02;18.20;49.30
74617;DHT22;63123;50.906;4.198;2022-12-07T13:18:04;18.20;49.20
74617;DHT22;63123;50.906;4.198;2022-12-07T13:20:49;18.20;49.20
74617;DHT22;63123;50.906;4.198;2022-12-07T13:23:18;18.20;49.10
74617;DHT22;63123;50.906;4.198;2022-12-07T13:26:00;18.20;48.70
74617;DHT22;63123;50.906;4.198;2022-12-07T13:28:33;18.20;48.70
74617;DHT22;63123;50.906;4.198;2022-12-07T13:31:09;18.20;48.70
74617;DHT22;63123;50.906;4.198;2022-12-07T13:33:36;18.20;48.70
74617;DHT22;63123;50.906;4.198;2022-12-07T13:36:03;18.20;48.80
74617;DHT22;63123;50.906;4.198;2022-12-07T13:38:32;18.20;48.70
74617;DHT22;63123;50.906;4.198;2022-12-07T13:43:27;18.20;48.70
74617;DHT22;63123;50.906;4.198;2022-12-07T13:45:57;18.20;48.40
74617;DHT22;63123;50.906;4.198;2022-12-07T13:48:44;18.20;49.00
74617;DHT22;63123;50.906;4.198;2022-12-07T13:51:18;18.20;48.80
74617;DHT22;63123;50.906;4.198;2022-12-07T13:53:55;18.20;48.60
74617;DHT22;63123;50.906;4.198;2022-12-07T13:56:22;18.20;48.40
74617;DHT22;63123;50.906;4.198;2022-12-07T13:58:51;18.20;48.70
74617;DHT22;63123;50.906;4.198;2022-12-07T14:01:16;18.20;48.80
74617;DHT22;63123;50.906;4.198;2022-12-07T14:03:42;18.20;48.80
74617;DHT22;63123;50.906;4.198;2022-12-07T14:06:23;18.20;48.60
74617;DHT22;63123;50.906;4.198;2022-12-07T14:09:25;18.20;48.40
74617;DHT22;63123;50.906;4.198;2022-12-07T14:11:56;18.20;48.70
74617;DHT22;63123;50.906;4.198;2022-12-07T14:14:32;18.20;48.60
74617;DHT22;63123;50.906;4.198;2022-12-07T14:17:02;18.20;49.00
74617;DHT22;63123;50.906;4.198;2022-12-07T14:19:43;18.20;48.90
74617;DHT22;63123;50.906;4.198;2022-12-07T14:22:27;18.20;48.60
74617;DHT22;63123;50.906;4.198;2022-12-07T14:25:21;18.20;48.60
74617;DHT22;63123;50.906;4.198;2022-12-07T14:27:58;18.20;48.90
74617;DHT22;63123;50.906;4.198;2022-12-07T14:30:27;18.20;48.90
74617;DHT22;63123;50.906;4.198;2022-12-07T14:32:58;18.20;48.60
74617;DHT22;63123;50.906;4.198;2022-12-07T14:35:25;18.20;48.70
74617;DHT22;63123;50.906;4.198;2022-12-07T14:37:51;18.20;48.80
74617;DHT22;63123;50.906;4.198;2022-12-07T14:40:21;18.20;48.70
74617;DHT22;63123;50.906;4.198;2022-12-07T14:42:49;18.20;48.60
74617;DHT22;63123;50.906;4.198;2022-12-07T14:45:21;18.20;48.60
74617;DHT22;63123;50.906;4.198;2022-12-07T14:47:47;18.20;48.60
74617;DHT22;63123;50.906;4.198;2022-12-07T14:50:18;18.20;48.60
74617;DHT22;63123;50.906;4.198;2022-12-07T14:52:47;18.20;48.50
74617;DHT22;63123;50.906;4.198;2022-12-07T14:55:20;18.20;48.80
74617;DHT22;63123;50.906;4.198;2022-12-07T14:57:47;18.20;48.70
74617;DHT22;63123;50.906;4.198;2022-12-07T15:00:16;18.20;48.60
74617;DHT22;63123;50.906;4.198;2022-12-07T15:02:43;18.20;48.40
74617;DHT22;63123;50.906;4.198;2022-12-07T15:05:09;18.20;48.30
74617;DHT22;63123;50.906;4.198;2022-12-07T15:07:35;18.20;48.40
74617;DHT22;63123;50.906;4.198;2022-12-07T15:10:00;18.20;48.30
74617;DHT22;63123;50.906;4.198;2022-12-07T15:12:26;18.20;48.90
74617;DHT22;63123;50.906;4.198;2022-12-07T15:14:52;18.20;48.40
74617;DHT22;63123;50.906;4.198;2022-12-07T15:17:18;18.20;48.90
74617;DHT22;63123;50.906;4.198;2022-12-07T15:19:43;18.20;48.80
74617;DHT22;63123;50.906;4.198;2022-12-07T15:22:09;18.20;48.90
74617;DHT22;63123;50.906;4.198;2022-12-07T15:24:36;18.10;48.70
74617;DHT22;63123;50.906;4.198;2022-12-07T15:27:02;18.20;48.70
74617;DHT22;63123;50.906;4.198;2022-12-07T15:29:28;18.20;48.40
74617;DHT22;63123;50.906;4.198;2022-12-07T15:31:55;18.20;48.30
74617;DHT22;63123;50.906;4.198;2022-12-07T15:34:21;18.20;48.70
74617;DHT22;63123;50.906;4.198;2022-12-07T15:36:48;18.20;48.60
74617;DHT22;63123;50.906;4.198;2022-12-07T15:39:13;18.20;48.90
74617;DHT22;63123;50.906;4.198;2022-12-07T15:41:39;18.20;48.50
74617;DHT22;63123;50.906;4.198;2022-12-07T15:44:05;18.10;48.70
74617;DHT22;63123;50.906;4.198;2022-12-07T15:46:49;18.20;48.80
74617;DHT22;63123;50.906;4.198;2022-12-07T15:49:17;18.20;49.00
74617;DHT22;63123;50.906;4.198;2022-12-07T15:51:44;18.20;48.60
74617;DHT22;63123;50.906;4.198;2022-12-07T15:54:17;18.20;49.10
74617;DHT22;63123;50.906;4.198;2022-12-07T15:56:43;18.20;48.20
74617;DHT22;63123;50.906;4.198;2022-12-07T15:59:08;18.20;48.60
74617;DHT22;63123;50.906;4.198;2022-12-07T16:01:34;18.20;48.60
74617;DHT22;63123;50.906;4.198;2022-12-07T16:04:00;18.20;48.40
74617;DHT22;63123;50.906;4.198;2022-12-07T16:06:25;18.20;48.70
74617;DHT22;63123;50.906;4.198;2022-12-07T16:08:52;18.20;48.80
74617;DHT22;63123;50.906;4.198;2022-12-07T16:11:17;18.20;48.80
74617;DHT22;63123;50.906;4.198;2022-12-07T16:13:43;18.20;48.70
74617;DHT22;63123;50.906;4.198;2022-12-07T16:16:12;18.20;48.70
74617;DHT22;63123;50.906;4.198;2022-12-07T16:18:38;18.20;48.60
74617;DHT22;63123;50.906;4.198;2022-12-07T16:21:04;18.10;48.90
74617;DHT22;63123;50.906;4.198;2022-12-07T16:23:30;18.10;48.90
74617;DHT22;63123;50.906;4.198;2022-12-07T16:26:16;18.10;49.10
74617;DHT22;63123;50.906;4.198;2022-12-07T16:28:42;18.10;48.80
74617;DHT22;63123;50.906;4.198;2022-12-07T16:31:14;18.10;48.90
74617;DHT22;63123;50.906;4.198;2022-12-07T16:33:41;18.10;49.00
74617;DHT22;63123;50.906;4.198;2022-12-07T16:36:08;18.10;49.00
74617;DHT22;63123;50.906;4.198;2022-12-07T16:38:35;18.10;48.90
74617;DHT22;63123;50.906;4.198;2022-12-07T16:41:01;18.20;48.70
74617;DHT22;63123;50.906;4.198;2022-12-07T16:43:27;18.10;48.80
74617;DHT22;63123;50.906;4.198;2022-12-07T16:45:53;18.10;48.80
74617;DHT22;63123;50.906;4.198;2022-12-07T16:48:19;18.20;48.70
74617;DHT22;63123;50.906;4.198;2022-12-07T16:50:45;18.10;49.30
74617;DHT22;63123;50.906;4.198;2022-12-07T16:53:11;18.20;48.40
74617;DHT22;63123;50.906;4.198;2022-12-07T16:55:42;18.20;48.70
74617;DHT22;63123;50.906;4.198;2022-12-07T16:58:09;18.20;48.40
74617;DHT22;63123;50.906;4.198;2022-12-07T17:00:34;18.20;48.90
74617;DHT22;63123;50.906;4.198;2022-12-07T17:03:01;18.20;48.20
74617;DHT22;63123;50.906;4.198;2022-12-07T17:05:27;18.20;48.40
74617;DHT22;63123;50.906;4.198;2022-12-07T17:07:56;18.10;48.80
74617;DHT22;63123;50.906;4.198;2022-12-07T17:10:23;18.20;48.50
74617;DHT22;63123;50.906;4.198;2022-12-07T17:12:49;18.10;48.60
74617;DHT22;63123;50.906;4.198;2022-12-07T17:15:15;18.10;48.60
74617;DHT22;63123;50.906;4.198;2022-12-07T17:17:56;18.20;48.50
74617;DHT22;63123;50.906;4.198;2022-12-07T17:20:23;18.20;48.50